This is the latest recevied weather packets stored in our database for station/object K1FFK-1. If no packets are shown the sender has not sent any weather packets the latest 10 day(s).
| Time | Temp. | Humidity | Pressure | Rain* | Wind** | Luminosity | Snow |
|---|---|---|---|---|---|---|---|
| 1777479694 | 11.11° C | 65% | 1016.5 hPa | 0 mm | - | - | - |
| 1777479093 | 11.67° C | 64% | 1016.4 hPa | 0 mm | - | - | - |
| 1777478493 | 11.11° C | 68% | 1016.4 hPa | 0 mm | - | - | - |
| 1777477893 | 11.67° C | 65% | 1016.4 hPa | 0 mm | - | - | - |
| 1777477294 | 11.11° C | 68% | 1016.3 hPa | 0 mm | - | - | - |
| 1777476693 | 10.56° C | 73% | 1016.3 hPa | 0 mm | - | - | - |
| 1777476093 | 10.56° C | 73% | 1016.2 hPa | 0 mm | - | - | - |
| 1777475746 | 9.44° C | 75% | 1016.1 hPa | 0 mm | - | - | - |
| 1777475494 | 9.44° C | 75% | 1016.1 hPa | 0 mm | - | - | - |
| 1777474893 | 10° C | 74% | 1016.3 hPa | 0 mm | - | - | - |
| 1777474293 | 8.89° C | 74% | 1016.4 hPa | 0 mm | - | - | - |
| 1777473694 | 8.33° C | 76% | 1016.3 hPa | 0 mm | - | - | - |
| 1777473094 | 8.33° C | 76% | 1016.3 hPa | 0 mm | - | - | - |
| 1777472494 | 8.33° C | 72% | 1016.6 hPa | 0 mm | - | - | - |
| 1777471894 | 8.89° C | 69% | 1016.7 hPa | 0 mm | - | - | - |
| 1777471293 | 8.89° C | 73% | 1016.8 hPa | 0 mm | - | - | - |
| 1777470694 | 8.33° C | 75% | 1016.8 hPa | 0 mm | - | - | - |
| 1777470094 | 7.78° C | 78% | 1017 hPa | 0 mm | - | - | - |
| 1777469494 | 7.78° C | 79% | 1016.9 hPa | 0 mm | - | - | - |
| 1777468893 | 8.33° C | 81% | 1017.3 hPa | 0 mm | - | - | - |
| 1777468294 | 8.33° C | 81% | 1017.3 hPa | 0 mm | - | - | - |
| 1777467693 | 7.22° C | 87% | 1017.2 hPa | 0 mm | - | - | - |
| 1777467093 | 6.11° C | 90% | 1017.1 hPa | 0 mm | - | - | - |
| 1777466495 | 6.11° C | 89% | 1017.3 hPa | 0 mm | - | - | - |
| 1777465893 | 5.56° C | 89% | 1017.2 hPa | 0 mm | - | - | - |
* Rain latest hour (hover to see other rain measurements)
** Current wind speed in m/s (hover to see current wind gust speed)